sensor_id;sensor_type;location;lat;lon;timestamp;pressure;altitude;pressure_sealevel;temperature;humidity
19023;BME280;35226;48.606;8.858;2023-05-12T00:01:42;95977.00;;;10.75;100.00
19023;BME280;35226;48.606;8.858;2023-05-12T00:04:08;95977.78;;;10.76;100.00
19023;BME280;35226;48.606;8.858;2023-05-12T00:06:33;95972.25;;;10.76;100.00
19023;BME280;35226;48.606;8.858;2023-05-12T00:08:59;95974.53;;;10.77;100.00
19023;BME280;35226;48.606;8.858;2023-05-12T00:11:24;95968.28;;;10.77;100.00
19023;BME280;35226;48.606;8.858;2023-05-12T00:13:50;95973.03;;;10.77;100.00
19023;BME280;35226;48.606;8.858;2023-05-12T00:16:16;95972.69;;;10.74;100.00
19023;BME280;35226;48.606;8.858;2023-05-12T00:18:43;95969.16;;;10.74;100.00
19023;BME280;35226;48.606;8.858;2023-05-12T00:21:09;95966.72;;;10.76;100.00
19023;BME280;35226;48.606;8.858;2023-05-12T00:23:37;95968.72;;;10.75;100.00
19023;BME280;35226;48.606;8.858;2023-05-12T00:26:03;95972.69;;;10.74;100.00
19023;BME280;35226;48.606;8.858;2023-05-12T00:28:28;95969.16;;;10.74;100.00
19023;BME280;35226;48.606;8.858;2023-05-12T00:30:55;95968.41;;;10.73;100.00
19023;BME280;35226;48.606;8.858;2023-05-12T00:33:21;95972.69;;;10.74;100.00
19023;BME280;35226;48.606;8.858;2023-05-12T00:35:46;95977.47;;;10.74;100.00
19023;BME280;35226;48.606;8.858;2023-05-12T00:38:15;95973.47;;;10.75;100.00
19023;BME280;35226;48.606;8.858;2023-05-12T00:40:40;95976.69;;;10.73;100.00
19023;BME280;35226;48.606;8.858;2023-05-12T00:43:06;95968.72;;;10.75;100.00
19023;BME280;35226;48.606;8.858;2023-05-12T00:45:32;95967.19;;;10.74;100.00
19023;BME280;35226;48.606;8.858;2023-05-12T00:47:58;95969.63;;;10.72;100.00
19023;BME280;35226;48.606;8.858;2023-05-12T00:50:24;95966.09;;;10.72;100.00
19023;BME280;35226;48.606;8.858;2023-05-12T00:52:49;95968.97;;;10.68;100.00
19023;BME280;35226;48.606;8.858;2023-05-12T00:55:16;95966.84;;;10.72;100.00
19023;BME280;35226;48.606;8.858;2023-05-12T00:57:42;95972.81;;;10.71;100.00
19023;BME280;35226;48.606;8.858;2023-05-12T01:00:09;95967.91;;;10.66;100.00
19023;BME280;35226;48.606;8.858;2023-05-12T01:02:36;95968.19;;;10.68;100.00
19023;BME280;35226;48.606;8.858;2023-05-12T01:05:02;95968.97;;;10.68;100.00
19023;BME280;35226;48.606;8.858;2023-05-12T01:07:31;95956.38;;;10.67;100.00
19023;BME280;35226;48.606;8.858;2023-05-12T01:09:58;95962.53;;;10.71;100.00
19023;BME280;35226;48.606;8.858;2023-05-12T01:12:25;95962.09;;;10.73;100.00
19023;BME280;35226;48.606;8.858;2023-05-12T01:14:53;95964.88;;;10.73;100.00
19023;BME280;35226;48.606;8.858;2023-05-12T01:17:26;95963.31;;;10.72;100.00
19023;BME280;35226;48.606;8.858;2023-05-12T01:19:55;95961.78;;;10.71;100.00
19023;BME280;35226;48.606;8.858;2023-05-12T01:22:24;95964.66;;;10.67;100.00
19023;BME280;35226;48.606;8.858;2023-05-12T01:24:57;95961.91;;;10.67;100.00
19023;BME280;35226;48.606;8.858;2023-05-12T01:27:29;95962.66;;;10.68;100.00
19023;BME280;35226;48.606;8.858;2023-05-12T01:30:00;95958.69;;;10.69;100.00
19023;BME280;35226;48.606;8.858;2023-05-12T01:32:30;95955.16;;;10.68;100.00
19023;BME280;35226;48.606;8.858;2023-05-12T01:34:57;95959.78;;;10.71;100.00
19023;BME280;35226;48.606;8.858;2023-05-12T01:37:22;95954.25;;;10.71;100.00
19023;BME280;35226;48.606;8.858;2023-05-12T01:39:53;95953.16;;;10.69;100.00
19023;BME280;35226;48.606;8.858;2023-05-12T01:42:19;95948.09;;;10.67;100.00
19023;BME280;35226;48.606;8.858;2023-05-12T01:44:45;95958.06;;;10.65;100.00
19023;BME280;35226;48.606;8.858;2023-05-12T01:47:11;95949.63;;;10.68;100.00
19023;BME280;35226;48.606;8.858;2023-05-12T01:49:39;95954.84;;;10.66;100.00
19023;BME280;35226;48.606;8.858;2023-05-12T01:52:08;95944.56;;;10.67;100.00
19023;BME280;35226;48.606;8.858;2023-05-12T01:54:34;95956.84;;;10.66;100.00
19023;BME280;35226;48.606;8.858;2023-05-12T01:56:59;95959.13;;;10.67;100.00
19023;BME280;35226;48.606;8.858;2023-05-12T01:59:25;95962.66;;;10.68;100.00
19023;BME280;35226;48.606;8.858;2023-05-12T02:01:51;95964.38;;;10.65;100.00
19023;BME280;35226;48.606;8.858;2023-05-12T02:04:25;95958.47;;;10.54;100.00
19023;BME280;35226;48.606;8.858;2023-05-12T02:06:51;95955.97;;;10.47;100.00
19023;BME280;35226;48.606;8.858;2023-05-12T02:09:16;95956.41;;;10.46;100.00
19023;BME280;35226;48.606;8.858;2023-05-12T02:11:42;95962.56;;;10.50;100.00
19023;BME280;35226;48.606;8.858;2023-05-12T02:22:13;95969.50;;;10.54;100.00
19023;BME280;35226;48.606;8.858;2023-05-12T02:54:24;95958.59;;;10.51;100.00
19023;BME280;35226;48.606;8.858;2023-05-12T02:56:50;95963.66;;;10.52;100.00
19023;BME280;35226;48.606;8.858;2023-05-12T02:59:15;95959.34;;;10.51;100.00
19023;BME280;35226;48.606;8.858;2023-05-12T03:01:40;95949.84;;;10.52;100.00
19023;BME280;35226;48.606;8.858;2023-05-12T03:04:06;95963.00;;;10.48;100.00
19023;BME280;35226;48.606;8.858;2023-05-12T03:06:31;95961.50;;;10.47;100.00
19023;BME280;35226;48.606;8.858;2023-05-12T03:08:57;95961.94;;;10.46;100.00
19023;BME280;35226;48.606;8.858;2023-05-12T03:11:24;95962.38;;;10.44;100.00
19023;BME280;35226;48.606;8.858;2023-05-12T03:13:50;95965.94;;;10.45;100.00
19023;BME280;35226;48.606;8.858;2023-05-12T03:16:16;95959.63;;;10.44;100.00
19023;BME280;35226;48.606;8.858;2023-05-12T03:18:42;95971.44;;;10.45;100.00
19023;BME280;35226;48.606;8.858;2023-05-12T03:21:08;95957.81;;;10.50;100.00
19023;BME280;35226;48.606;8.858;2023-05-12T03:23:34;95963.50;;;10.47;100.00
19023;BME280;35226;48.606;8.858;2023-05-12T03:26:01;95964.25;;;10.47;100.00
19023;BME280;35226;48.606;8.858;2023-05-12T03:28:26;95969.91;;;10.44;100.00
19023;BME280;35226;48.606;8.858;2023-05-12T03:30:52;95965.94;;;10.45;100.00
19023;BME280;35226;48.606;8.858;2023-05-12T04:00:09;95958.25;;;10.49;100.00
19023;BME280;35226;48.606;8.858;2023-05-12T04:02:44;95958.59;;;10.51;100.00
19023;BME280;35226;48.606;8.858;2023-05-12T04:05:13;95960.91;;;10.52;100.00
19023;BME280;35226;48.606;8.858;2023-05-12T04:07:38;95961.34;;;10.51;100.00
19023;BME280;35226;48.606;8.858;2023-05-12T04:10:04;95958.03;;;10.56;100.00
19023;BME280;35226;48.606;8.858;2023-05-12T04:12:30;95961.56;;;10.56;100.00
19023;BME280;35226;48.606;8.858;2023-05-12T04:14:55;95961.56;;;10.56;100.00
19023;BME280;35226;48.606;8.858;2023-05-12T04:17:23;95962.63;;;10.59;100.00
19023;BME280;35226;48.606;8.858;2023-05-12T04:19:48;95959.25;;;10.55;100.00
19023;BME280;35226;48.606;8.858;2023-05-12T04:22:14;95965.09;;;10.57;100.00
19023;BME280;35226;48.606;8.858;2023-05-12T04:24:39;95965.38;;;10.59;100.00
19023;BME280;35226;48.606;8.858;2023-05-12T04:27:05;95967.69;;;10.60;100.00
19023;BME280;35226;48.606;8.858;2023-05-12T04:29:32;95974.31;;;10.63;100.00
19023;BME280;35226;48.606;8.858;2023-05-12T04:31:58;95979.19;;;10.59;100.00
19023;BME280;35226;48.606;8.858;2023-05-12T04:37:06;95978.75;;;10.60;100.00
19023;BME280;35226;48.606;8.858;2023-05-12T04:39:33;95985.19;;;10.57;100.00
19023;BME280;35226;48.606;8.858;2023-05-12T04:42:00;95982.09;;;10.55;100.00
19023;BME280;35226;48.606;8.858;2023-05-12T05:27:40;95986.97;;;10.73;100.00
19023;BME280;35226;48.606;8.858;2023-05-12T05:30:06;95986.53;;;10.74;100.00
19023;BME280;35226;48.606;8.858;2023-05-12T05:32:37;95988.50;;;10.74;100.00
19023;BME280;35226;48.606;8.858;2023-05-12T06:58:29;96027.72;;;11.12;100.00
19023;BME280;35226;48.606;8.858;2023-05-12T07:00:55;96026.66;;;11.19;100.00
19023;BME280;35226;48.606;8.858;2023-05-12T07:03:20;96029.56;;;11.16;100.00
19023;BME280;35226;48.606;8.858;2023-05-12T07:05:46;96019.78;;;11.24;100.00
19023;BME280;35226;48.606;8.858;2023-05-12T07:08:11;96010.84;;;11.20;100.00
19023;BME280;35226;48.606;8.858;2023-05-12T07:10:37;96016.41;;;11.29;100.00
19023;BME280;35226;48.606;8.858;2023-05-12T07:13:03;96019.81;;;11.33;100.00
19023;BME280;35226;48.606;8.858;2023-05-12T07:15:28;96012.41;;;11.30;100.00
19023;BME280;35226;48.606;8.858;2023-05-12T07:17:54;96015.66;;;11.37;100.00
19023;BME280;35226;48.606;8.858;2023-05-12T07:20:20;96009.84;;;11.35;100.00
19023;BME280;35226;48.606;8.858;2023-05-12T07:22:47;96015.09;;;11.42;100.00
19023;BME280;35226;48.606;8.858;2023-05-12T07:25:12;96011.72;;;11.47;100.00
19023;BME280;35226;48.606;8.858;2023-05-12T07:27:38;96010.47;;;11.48;100.00
19023;BME280;35226;48.606;8.858;2023-05-12T07:30:05;96011.91;;;11.62;100.00
19023;BME280;35226;48.606;8.858;2023-05-12T07:32:31;96019.47;;;11.71;100.00
19023;BME280;35226;48.606;8.858;2023-05-12T07:34:56;96009.50;;;11.73;100.00
19023;BME280;35226;48.606;8.858;2023-05-12T07:37:22;96015.84;;;11.83;100.00
19023;BME280;35226;48.606;8.858;2023-05-12T07:39:47;96014.91;;;11.95;100.00
19023;BME280;35226;48.606;8.858;2023-05-12T07:42:13;96010.78;;;12.00;100.00
19023;BME280;35226;48.606;8.858;2023-05-12T07:44:39;96006.94;;;12.06;100.00
19023;BME280;35226;48.606;8.858;2023-05-12T07:47:05;96004.16;;;12.06;100.00
19023;BME280;35226;48.606;8.858;2023-05-12T07:49:31;96007.13;;;12.12;100.00
19023;BME280;35226;48.606;8.858;2023-05-12T07:51:57;95999.25;;;12.29;100.00
19023;BME280;35226;48.606;8.858;2023-05-12T07:54:23;95991.28;;;12.31;100.00
19023;BME280;35226;48.606;8.858;2023-05-12T07:56:48;95994.34;;;12.42;100.00
19023;BME280;35226;48.606;8.858;2023-05-12T07:59:14;95995.41;;;12.35;100.00
19023;BME280;35226;48.606;8.858;2023-05-12T08:01:40;95992.03;;;12.40;100.00
19023;BME280;35226;48.606;8.858;2023-05-12T08:04:05;95990.78;;;12.50;100.00
19023;BME280;35226;48.606;8.858;2023-05-12T08:06:31;95993.41;;;12.36;100.00
19023;BME280;35226;48.606;8.858;2023-05-12T08:08:57;95987.84;;;12.54;100.00
19023;BME280;35226;48.606;8.858;2023-05-12T08:11:24;95992.00;;;12.58;100.00
19023;BME280;35226;48.606;8.858;2023-05-12T08:13:50;95984.94;;;12.48;100.00
19023;BME280;35226;48.606;8.858;2023-05-12T08:16:16;95984.13;;;12.75;100.00
19023;BME280;35226;48.606;8.858;2023-05-12T08:18:41;95986.75;;;12.70;100.00
19023;BME280;35226;48.606;8.858;2023-05-12T08:21:07;95972.69;;;12.91;100.00
19023;BME280;35226;48.606;8.858;2023-05-12T08:23:33;95989.63;;;12.84;100.00
19023;BME280;35226;48.606;8.858;2023-05-12T08:25:58;95986.84;;;12.93;100.00
19023;BME280;35226;48.606;8.858;2023-05-12T08:28:24;95987.63;;;12.85;100.00
19023;BME280;35226;48.606;8.858;2023-05-12T08:30:49;95983.91;;;12.97;100.00
19023;BME280;35226;48.606;8.858;2023-05-12T08:33:15;95981.88;;;13.07;100.00
19023;BME280;35226;48.606;8.858;2023-05-12T08:35:40;95990.31;;;13.12;100.00
19023;BME280;35226;48.606;8.858;2023-05-12T08:38:06;95990.97;;;13.16;100.00
19023;BME280;35226;48.606;8.858;2023-05-12T08:40:39;95982.66;;;13.49;100.00
19023;BME280;35226;48.606;8.858;2023-05-12T08:45:38;96000.88;;;12.99;100.00
19023;BME280;35226;48.606;8.858;2023-05-12T08:48:08;95991.50;;;12.87;100.00
19023;BME280;35226;48.606;8.858;2023-05-12T08:50:35;95999.34;;;12.89;100.00
19023;BME280;35226;48.606;8.858;2023-05-12T08:53:09;96004.44;;;12.81;100.00
19023;BME280;35226;48.606;8.858;2023-05-12T08:55:36;95997.69;;;12.82;100.00
19023;BME280;35226;48.606;8.858;2023-05-12T08:58:02;96004.44;;;12.81;100.00
19023;BME280;35226;48.606;8.858;2023-05-12T09:00:28;96004.16;;;12.79;100.00
19023;BME280;35226;48.606;8.858;2023-05-12T09:02:56;96004.91;;;12.89;100.00
19023;BME280;35226;48.606;8.858;2023-05-12T09:05:23;96001.50;;;12.85;100.00
19023;BME280;35226;48.606;8.858;2023-05-12T09:07:52;96013.81;;;12.84;100.00
19023;BME280;35226;48.606;8.858;2023-05-12T09:10:20;96006.16;;;12.79;100.00
19023;BME280;35226;48.606;8.858;2023-05-12T09:12:51;96015.09;;;12.83;100.00
19023;BME280;35226;48.606;8.858;2023-05-12T09:15:23;96011.72;;;12.70;100.00
19023;BME280;35226;48.606;8.858;2023-05-12T09:17:50;96015.72;;;12.69;100.00
19023;BME280;35226;48.606;8.858;2023-05-12T09:20:16;96010.31;;;12.65;100.00
19023;BME280;35226;48.606;8.858;2023-05-12T09:22:42;96021.72;;;12.67;100.00
19023;BME280;35226;48.606;8.858;2023-05-12T09:25:18;96020.94;;;12.67;100.00
19023;BME280;35226;48.606;8.858;2023-05-12T09:27:48;96008.00;;;12.64;100.00
19023;BME280;35226;48.606;8.858;2023-05-12T09:30:14;96007.09;;;12.67;100.00
19023;BME280;35226;48.606;8.858;2023-05-12T09:32:40;96007.41;;;12.59;100.00
19023;BME280;35226;48.606;8.858;2023-05-12T09:35:07;96006.94;;;12.61;100.00
19023;BME280;35226;48.606;8.858;2023-05-12T09:37:36;96009.53;;;12.65;100.00
19023;BME280;35226;48.606;8.858;2023-05-12T09:40:03;96010.31;;;12.65;100.00
19023;BME280;35226;48.606;8.858;2023-05-12T09:42:30;96007.72;;;12.62;100.00
19023;BME280;35226;48.606;8.858;2023-05-12T09:45:03;96010.16;;;12.69;100.00
19023;BME280;35226;48.606;8.858;2023-05-12T09:47:34;96010.78;;;12.64;100.00
19023;BME280;35226;48.606;8.858;2023-05-12T09:50:01;96010.16;;;12.69;100.00
19023;BME280;35226;48.606;8.858;2023-05-12T09:52:28;96005.84;;;12.68;100.00
19023;BME280;35226;48.606;8.858;2023-05-12T09:54:54;96008.94;;;12.70;100.00
19023;BME280;35226;48.606;8.858;2023-05-12T09:57:20;96010.63;;;12.67;100.00
19023;BME280;35226;48.606;8.858;2023-05-12T09:59:48;96014.47;;;12.70;100.00
19023;BME280;35226;48.606;8.858;2023-05-12T10:02:14;96006.94;;;12.70;100.00
19023;BME280;35226;48.606;8.858;2023-05-12T10:04:54;96008.13;;;12.87;100.00
19023;BME280;35226;48.606;8.858;2023-05-12T10:07:23;96007.50;;;12.92;100.00
19023;BME280;35226;48.606;8.858;2023-05-12T10:09:54;96013.03;;;13.02;100.00
19023;BME280;35226;48.606;8.858;2023-05-12T10:12:19;96009.78;;;12.94;100.00
19023;BME280;35226;48.606;8.858;2023-05-12T10:14:46;96007.94;;;13.00;100.00
19023;BME280;35226;48.606;8.858;2023-05-12T10:17:12;96002.41;;;13.00;100.00
19023;BME280;35226;48.606;8.858;2023-05-12T10:19:40;96009.63;;;12.97;100.00
19023;BME280;35226;48.606;8.858;2023-05-12T10:22:09;96000.72;;;12.93;100.00
19023;BME280;35226;48.606;8.858;2023-05-12T10:24:35;96004.06;;;13.07;100.00
19023;BME280;35226;48.606;8.858;2023-05-12T10:27:04;95998.81;;;13.18;100.00
19023;BME280;35226;48.606;8.858;2023-05-12T10:29:30;95993.63;;;13.44;100.00
19023;BME280;35226;48.606;8.858;2023-05-12T10:31:58;95992.19;;;13.57;100.00
19023;BME280;35226;48.606;8.858;2023-05-12T10:34:43;95999.81;;;13.39;100.00
19023;BME280;35226;48.606;8.858;2023-05-12T10:37:10;95993.16;;;13.45;100.00
19023;BME280;35226;48.606;8.858;2023-05-12T10:39:36;95991.56;;;13.53;100.00
19023;BME280;35226;48.606;8.858;2023-05-12T10:42:10;95992.28;;;13.63;100.00
19023;BME280;35226;48.606;8.858;2023-05-12T10:44:50;95988.03;;;13.53;100.00
19023;BME280;35226;48.606;8.858;2023-05-12T10:47:16;95986.88;;;13.68;100.00
19023;BME280;35226;48.606;8.858;2023-05-12T10:49:41;95975.13;;;13.74;100.00
19023;BME280;35226;48.606;8.858;2023-05-12T10:52:10;95981.50;;;13.89;100.00
19023;BME280;35226;48.606;8.858;2023-05-12T10:54:42;95983.22;;;14.10;100.00
19023;BME280;35226;48.606;8.858;2023-05-12T10:57:18;95986.63;;;14.29;100.00
19023;BME280;35226;48.606;8.858;2023-05-12T10:59:55;95985.34;;;14.39;100.00
19023;BME280;35226;48.606;8.858;2023-05-12T11:02:26;95983.78;;;14.38;100.00
19023;BME280;35226;48.606;8.858;2023-05-12T11:05:03;95983.00;;;14.37;100.00
19023;BME280;35226;48.606;8.858;2023-05-12T11:07:33;95982.66;;;14.59;100.00
19023;BME280;35226;48.606;8.858;2023-05-12T11:10:00;95981.16;;;14.58;100.00
19023;BME280;35226;48.606;8.858;2023-05-12T11:12:30;95986.25;;;14.36;100.00
19023;BME280;35226;48.606;8.858;2023-05-12T11:15:00;95979.09;;;14.44;100.00
19023;BME280;35226;48.606;8.858;2023-05-12T11:17:26;95989.16;;;14.41;100.00
19023;BME280;35226;48.606;8.858;2023-05-12T11:19:52;95979.28;;;14.40;100.00
19023;BME280;35226;48.606;8.858;2023-05-12T11:22:20;95990.22;;;14.20;100.00
19023;BME280;35226;48.606;8.858;2023-05-12T11:24:46;95989.50;;;14.34;100.00
19023;BME280;35226;48.606;8.858;2023-05-12T11:27:14;95992.13;;;14.14;100.00
19023;BME280;35226;48.606;8.858;2023-05-12T11:29:41;95998.91;;;14.13;100.00
19023;BME280;35226;48.606;8.858;2023-05-12T11:32:10;95995.34;;;13.98;100.00
19023;BME280;35226;48.606;8.858;2023-05-12T11:34:37;95994.25;;;13.95;100.00
19023;BME280;35226;48.606;8.858;2023-05-12T11:37:03;95996.28;;;13.95;100.00
19023;BME280;35226;48.606;8.858;2023-05-12T11:39:30;95992.19;;;13.81;100.00
19023;BME280;35226;48.606;8.858;2023-05-12T11:42:06;95993.63;;;13.77;100.00
19023;BME280;35226;48.606;8.858;2023-05-12T11:44:34;95994.09;;;13.75;100.00
19023;BME280;35226;48.606;8.858;2023-05-12T11:49:28;95990.78;;;13.86;100.00
19023;BME280;35226;48.606;8.858;2023-05-12T11:51:56;95997.56;;;13.85;100.00
19023;BME280;35226;48.606;8.858;2023-05-12T11:54:22;95995.41;;;13.89;100.00
19023;BME280;35226;48.606;8.858;2023-05-12T11:56:52;95998.41;;;13.76;100.00
19023;BME280;35226;48.606;8.858;2023-05-12T11:59:32;96000.25;;;13.79;100.00
19023;BME280;35226;48.606;8.858;2023-05-12T12:01:59;95998.69;;;13.78;100.00
19023;BME280;35226;48.606;8.858;2023-05-12T12:04:38;95994.44;;;13.68;100.00
19023;BME280;35226;48.606;8.858;2023-05-12T12:07:08;96000.63;;;13.63;100.00
19023;BME280;35226;48.606;8.858;2023-05-12T12:09:38;96004.84;;;13.82;100.00
19023;BME280;35226;48.606;8.858;2023-05-12T12:12:06;96005.59;;;13.83;100.00
19023;BME280;35226;48.606;8.858;2023-05-12T12:14:33;96005.97;;;13.76;100.00
19023;BME280;35226;48.606;8.858;2023-05-12T12:17:00;96004.66;;;13.86;100.00
19023;BME280;35226;48.606;8.858;2023-05-12T12:19:26;96016.06;;;13.88;100.00
19023;BME280;35226;48.606;8.858;2023-05-12T12:21:56;96014.31;;;13.99;100.00
19023;BME280;35226;48.606;8.858;2023-05-12T12:24:22;96014.94;;;13.94;100.00
19023;BME280;35226;48.606;8.858;2023-05-12T12:26:48;96018.78;;;13.97;100.00
19023;BME280;35226;48.606;8.858;2023-05-12T12:29:13;96018.97;;;13.93;100.00
19023;BME280;35226;48.606;8.858;2023-05-12T12:31:39;96024.22;;;13.91;100.00
19023;BME280;35226;48.606;8.858;2023-05-12T12:34:04;96024.28;;;13.82;100.00
19023;BME280;35226;48.606;8.858;2023-05-12T12:36:31;96028.41;;;13.87;100.00
19023;BME280;35226;48.606;8.858;2023-05-12T12:38:57;96025.75;;;13.68;100.00
19023;BME280;35226;48.606;8.858;2023-05-12T12:41:23;96026.72;;;13.56;100.00
19023;BME280;35226;48.606;8.858;2023-05-12T12:43:50;96032.59;;;13.58;100.00
19023;BME280;35226;48.606;8.858;2023-05-12T12:46:15;96033.66;;;13.61;100.00
19023;BME280;35226;48.606;8.858;2023-05-12T12:48:41;96036.38;;;13.37;100.00
19023;BME280;35226;48.606;8.858;2023-05-12T12:51:06;96036.66;;;13.39;100.00
19023;BME280;35226;48.606;8.858;2023-05-12T12:53:32;96044.72;;;13.28;100.00
19023;BME280;35226;48.606;8.858;2023-05-12T12:55:58;96046.09;;;13.23;100.00
19023;BME280;35226;48.606;8.858;2023-05-12T12:58:23;96055.06;;;13.18;100.00
19023;BME280;35226;48.606;8.858;2023-05-12T13:00:49;96060.44;;;13.13;100.00
19023;BME280;35226;48.606;8.858;2023-05-12T13:03:15;96059.38;;;13.19;100.00
19023;BME280;35226;48.606;8.858;2023-05-12T13:05:40;96058.94;;;13.12;100.00
19023;BME280;35226;48.606;8.858;2023-05-12T13:08:06;96066.47;;;13.11;100.00
19023;BME280;35226;48.606;8.858;2023-05-12T13:10:31;96070.75;;;13.12;100.00
19023;BME280;35226;48.606;8.858;2023-05-12T13:12:57;96067.41;;;13.17;100.00
19023;BME280;35226;48.606;8.858;2023-05-12T13:15:23;96065.97;;;13.13;100.00
19023;BME280;35226;48.606;8.858;2023-05-12T13:17:48;96069.84;;;13.06;100.00
19023;BME280;35226;48.606;8.858;2023-05-12T13:20:14;96072.63;;;13.06;100.00
19023;BME280;35226;48.606;8.858;2023-05-12T13:22:41;96073.25;;;13.10;100.00
19023;BME280;35226;48.606;8.858;2023-05-12T13:25:07;96080.81;;;13.19;100.00
19023;BME280;35226;48.606;8.858;2023-05-12T13:27:37;96069.41;;;13.08;100.00
19023;BME280;35226;48.606;8.858;2023-05-12T13:30:06;96067.56;;;13.14;100.00
19023;BME280;35226;48.606;8.858;2023-05-12T13:32:33;96066.47;;;13.11;100.00
19023;BME280;35226;48.606;8.858;2023-05-12T13:34:59;96070.94;;;13.18;100.00
19023;BME280;35226;48.606;8.858;2023-05-12T13:37:25;96061.53;;;13.06;100.00
19023;BME280;35226;48.606;8.858;2023-05-12T13:39:51;96070.94;;;13.18;100.00
19023;BME280;35226;48.606;8.858;2023-05-12T13:42:17;96070.78;;;13.21;100.00
19023;BME280;35226;48.606;8.858;2023-05-12T13:44:43;96062.47;;;13.21;100.00
19023;BME280;35226;48.606;8.858;2023-05-12T13:47:09;96065.25;;;13.21;100.00
19023;BME280;35226;48.606;8.858;2023-05-12T13:49:35;96057.66;;;13.31;100.00
19023;BME280;35226;48.606;8.858;2023-05-12T13:52:01;96055.91;;;13.43;100.00
19023;BME280;35226;48.606;8.858;2023-05-12T13:54:27;96053.31;;;13.39;100.00
19023;BME280;35226;48.606;8.858;2023-05-12T13:56:52;96045.75;;;13.40;100.00
19023;BME280;35226;48.606;8.858;2023-05-12T13:59:18;96044.34;;;13.44;100.00
19023;BME280;35226;48.606;8.858;2023-05-12T14:01:44;96041.25;;;13.51;100.00
19023;BME280;35226;48.606;8.858;2023-05-12T14:04:10;96049.59;;;13.51;100.00
19023;BME280;35226;48.606;8.858;2023-05-12T14:06:36;96042.25;;;13.63;100.00
19023;BME280;35226;48.606;8.858;2023-05-12T14:09:02;96039.94;;;13.61;100.00
19023;BME280;35226;48.606;8.858;2023-05-12T14:11:30;96039.63;;;13.68;100.00
19023;BME280;35226;48.606;8.858;2023-05-12T14:13:56;96032.34;;;13.71;100.00
19023;BME280;35226;48.606;8.858;2023-05-12T14:16:24;96038.50;;;13.75;100.00
19023;BME280;35226;48.606;8.858;2023-05-12T14:18:50;96036.16;;;13.83;100.00
19023;BME280;35226;48.606;8.858;2023-05-12T14:21:15;96028.00;;;13.79;100.00
19023;BME280;35226;48.606;8.858;2023-05-12T14:23:41;96026.41;;;13.87;100.00
19023;BME280;35226;48.606;8.858;2023-05-12T14:26:06;96030.97;;;13.99;100.00
19023;BME280;35226;48.606;8.858;2023-05-12T14:28:32;96034.72;;;14.11;100.00
19023;BME280;35226;48.606;8.858;2023-05-12T14:30:57;96032.19;;;14.22;100.00
19023;BME280;35226;48.606;8.858;2023-05-12T14:33:23;96025.22;;;14.27;100.00
19023;BME280;35226;48.606;8.858;2023-05-12T14:35:48;96041.97;;;14.41;100.00
19023;BME280;35226;48.606;8.858;2023-05-12T14:38:14;96037.34;;;14.38;100.00
19023;BME280;35226;48.606;8.858;2023-05-12T14:40:40;96030.56;;;14.39;100.00
19023;BME280;35226;48.606;8.858;2023-05-12T14:43:06;96037.78;;;14.46;100.00
19023;BME280;35226;48.606;8.858;2023-05-12T14:45:31;96025.97;;;14.51;100.00
19023;BME280;35226;48.606;8.858;2023-05-12T14:47:57;96030.56;;;14.39;100.00
19023;BME280;35226;48.606;8.858;2023-05-12T14:50:23;96037.03;;;14.36;100.00
19023;BME280;35226;48.606;8.858;2023-05-12T14:52:48;96045.31;;;14.22;100.00
19023;BME280;35226;48.606;8.858;2023-05-12T14:55:14;96043.38;;;14.13;100.00
19023;BME280;35226;48.606;8.858;2023-05-12T14:57:42;96047.59;;;14.08;100.00
19023;BME280;35226;48.606;8.858;2023-05-12T15:00:10;96041.38;;;14.14;100.00
19023;BME280;35226;48.606;8.858;2023-05-12T15:02:37;96049.34;;;13.97;100.00
19023;BME280;35226;48.606;8.858;2023-05-12T15:05:04;96051.81;;;13.95;100.00
19023;BME280;35226;48.606;8.858;2023-05-12T15:07:32;96048.75;;;13.93;100.00
19023;BME280;35226;48.606;8.858;2023-05-12T15:09:58;96050.59;;;13.96;100.00
19023;BME280;35226;48.606;8.858;2023-05-12T15:12:23;96048.75;;;13.93;100.00
19023;BME280;35226;48.606;8.858;2023-05-12T15:14:50;96049.22;;;13.91;100.00
19023;BME280;35226;48.606;8.858;2023-05-12T15:17:15;96048.06;;;14.07;100.00
19023;BME280;35226;48.606;8.858;2023-05-12T15:19:41;96051.91;;;14.10;100.00
19023;BME280;35226;48.606;8.858;2023-05-12T15:22:07;96046.56;;;14.21;100.00
19023;BME280;35226;48.606;8.858;2023-05-12T15:43:55;96051.53;;;14.17;100.00
19023;BME280;35226;48.606;8.858;2023-05-12T15:46:21;96050.31;;;14.18;100.00
19023;BME280;35226;48.606;8.858;2023-05-12T15:48:50;96039.78;;;13.98;100.00
19023;BME280;35226;48.606;8.858;2023-05-12T15:51:15;96033.97;;;14.11;100.00
19023;BME280;35226;48.606;8.858;2023-05-12T15:53:41;96038.66;;;14.04;100.00
19023;BME280;35226;48.606;8.858;2023-05-12T15:56:07;96042.56;;;13.98;100.00
19023;BME280;35226;48.606;8.858;2023-05-12T15:58:33;96036.84;;;13.92;100.00
19023;BME280;35226;48.606;8.858;2023-05-12T16:00:58;96046.00;;;13.84;100.00
19023;BME280;35226;48.606;8.858;2023-05-12T16:03:24;96046.97;;;13.81;100.00
19023;BME280;35226;48.606;8.858;2023-05-12T16:05:50;96046.22;;;13.80;100.00
19023;BME280;35226;48.606;8.858;2023-05-12T16:08:15;96057.63;;;13.73;100.00
19023;BME280;35226;48.606;8.858;2023-05-12T16:10:41;96072.50;;;13.61;100.00
19023;BME280;35226;48.606;8.858;2023-05-12T16:13:06;96065.28;;;13.54;100.00
19023;BME280;35226;48.606;8.858;2023-05-12T16:15:32;96058.03;;;13.57;100.00
19023;BME280;35226;48.606;8.858;2023-05-12T16:17:57;96070.53;;;13.52;100.00
19023;BME280;35226;48.606;8.858;2023-05-12T16:20:23;96065.16;;;13.49;100.00
19023;BME280;35226;48.606;8.858;2023-05-12T16:22:48;96074.41;;;13.46;100.00
19023;BME280;35226;48.606;8.858;2023-05-12T16:25:15;96069.00;;;13.42;100.00
19023;BME280;35226;48.606;8.858;2023-05-12T16:27:41;96058.56;;;13.37;100.00